Ripon, Wisconsin
Current Conditions -  °F | °C
As of 12:53 PM on Thursday 30 Oct 2014 (Local Time) from KOSH Reporting Station
Overcast Overcast  
Wind Chill: 44°   Ceiling: 11000
Heat Index: 48°   Visibility: 10mi
Dew Point: 35°   Wind: 9mph
Humidity: 61%   Direction: 290°WNW
Pressure: 30.06"   Gusts: NA
Location:  43.85°N, 88.84°W
Report Text: KOSH 301753Z 29008KT 10SM OVC110 09/02 A3006 RMK AO2 SLP187 T00890017 10089 20017 58008 $
Loading
Personal Weather Stations






























Interactive Weather Map New forecast layout! Learn more

10-Day Weather Forecast

Advertisements
Track Severe Weather on mobile